sensor_id;sensor_type;location;lat;lon;timestamp;pressure;altitude;pressure_sealevel;temperature;humidity
35918;BME280;22011;59.912;30.300;2023-03-22T00:02:06;100937.56;;;2.84;69.50
35918;BME280;22011;59.912;30.300;2023-03-22T00:04:34;100944.94;;;2.79;69.04
35918;BME280;22011;59.912;30.300;2023-03-22T00:07:01;100936.31;;;2.77;69.76
35918;BME280;22011;59.912;30.300;2023-03-22T00:09:30;100937.50;;;2.73;69.25
35918;BME280;22011;59.912;30.300;2023-03-22T00:11:58;100935.72;;;2.73;69.86
35918;BME280;22011;59.912;30.300;2023-03-22T00:14:25;100932.34;;;2.71;69.27
35918;BME280;22011;59.912;30.300;2023-03-22T00:16:52;100936.53;;;2.74;70.05
35918;BME280;22011;59.912;30.300;2023-03-22T00:19:20;100936.88;;;2.69;69.75
35918;BME280;22011;59.912;30.300;2023-03-22T00:21:47;100944.66;;;2.71;69.30
35918;BME280;22011;59.912;30.300;2023-03-22T00:24:16;100951.50;;;2.73;70.54
35918;BME280;22011;59.912;30.300;2023-03-22T00:26:45;100947.06;;;2.74;70.47
35918;BME280;22011;59.912;30.300;2023-03-22T00:29:13;100930.94;;;2.78;69.85
35918;BME280;22011;59.912;30.300;2023-03-22T00:31:41;100932.13;;;2.74;69.97
35918;BME280;22011;59.912;30.300;2023-03-22T00:34:08;100932.47;;;2.70;70.05
35918;BME280;22011;59.912;30.300;2023-03-22T00:36:38;100945.63;;;2.93;70.63
35918;BME280;22011;59.912;30.300;2023-03-22T00:39:05;100942.91;;;2.58;69.70
35918;BME280;22011;59.912;30.300;2023-03-22T00:41:33;100929.88;;;2.57;70.94
35918;BME280;22011;59.912;30.300;2023-03-22T00:44:02;100933.34;;;2.57;71.30
35918;BME280;22011;59.912;30.300;2023-03-22T00:46:30;100938.09;;;2.52;71.27
35918;BME280;22011;59.912;30.300;2023-03-22T00:48:57;100931.56;;;2.45;71.46
35918;BME280;22011;59.912;30.300;2023-03-22T00:51:24;100934.00;;;2.48;71.34
35918;BME280;22011;59.912;30.300;2023-03-22T00:53:52;100931.75;;;2.55;71.42
35918;BME280;22011;59.912;30.300;2023-03-22T00:56:22;100936.41;;;2.51;71.56
35918;BME280;22011;59.912;30.300;2023-03-22T00:58:59;100941.88;;;2.48;72.11
35918;BME280;22011;59.912;30.300;2023-03-22T01:01:29;100945.34;;;2.49;72.10
35918;BME280;22011;59.912;30.300;2023-03-22T01:03:57;100941.03;;;2.48;71.74
35918;BME280;22011;59.912;30.300;2023-03-22T01:06:25;100941.66;;;2.51;71.51
35918;BME280;22011;59.912;30.300;2023-03-22T01:08:52;100945.34;;;2.49;71.89
35918;BME280;22011;59.912;30.300;2023-03-22T01:11:20;100942.09;;;2.45;71.27
35918;BME280;22011;59.912;30.300;2023-03-22T01:13:47;100952.50;;;2.47;72.41
35918;BME280;22011;59.912;30.300;2023-03-22T01:16:15;100941.81;;;2.37;72.59
35918;BME280;22011;59.912;30.300;2023-03-22T01:18:44;100938.75;;;2.30;72.87
35918;BME280;22011;59.912;30.300;2023-03-22T01:21:12;100934.44;;;2.29;72.99
35918;BME280;22011;59.912;30.300;2023-03-22T01:23:40;100938.75;;;2.30;72.77
35918;BME280;22011;59.912;30.300;2023-03-22T01:26:07;100947.38;;;2.33;73.38
35918;BME280;22011;59.912;30.300;2023-03-22T01:28:35;100937.50;;;2.36;73.25
35918;BME280;22011;59.912;30.300;2023-03-22T01:31:06;100940.22;;;2.35;72.93
35918;BME280;22011;59.912;30.300;2023-03-22T01:33:33;100945.28;;;2.38;72.88
35918;BME280;22011;59.912;30.300;2023-03-22T01:36:03;100948.63;;;2.40;72.96
35918;BME280;22011;59.912;30.300;2023-03-22T01:38:33;100943.59;;;2.37;73.19
35918;BME280;22011;59.912;30.300;2023-03-22T01:41:01;100941.81;;;2.37;73.14
35918;BME280;22011;59.912;30.300;2023-03-22T01:43:31;100942.63;;;2.38;73.37
35918;BME280;22011;59.912;30.300;2023-03-22T01:45:59;100944.66;;;2.34;73.28
35918;BME280;22011;59.912;30.300;2023-03-22T01:48:29;100946.88;;;2.64;74.14
35918;BME280;22011;59.912;30.300;2023-03-22T01:51:04;100945.88;;;2.54;72.95
35918;BME280;22011;59.912;30.300;2023-03-22T01:53:46;100953.03;;;2.52;72.68
35918;BME280;22011;59.912;30.300;2023-03-22T01:56:16;100948.72;;;2.51;72.23
35918;BME280;22011;59.912;30.300;2023-03-22T01:58:45;100944.34;;;2.75;73.19
35918;BME280;22011;59.912;30.300;2023-03-22T02:01:16;100948.81;;;2.49;71.90
35918;BME280;22011;59.912;30.300;2023-03-22T02:03:50;100950.00;;;2.45;72.10
35918;BME280;22011;59.912;30.300;2023-03-22T02:06:21;100955.13;;;2.47;72.25
35918;BME280;22011;59.912;30.300;2023-03-22T02:08:56;100953.69;;;2.43;72.09
35918;BME280;22011;59.912;30.300;2023-03-22T02:11:28;100953.47;;;2.46;72.59
35918;BME280;22011;59.912;30.300;2023-03-22T02:14:10;100950.00;;;2.45;72.74
35918;BME280;22011;59.912;30.300;2023-03-22T02:17:11;100948.94;;;2.48;72.45
35918;BME280;22011;59.912;30.300;2023-03-22T02:23:33;100943.00;;;2.57;72.32
35918;BME280;22011;59.912;30.300;2023-03-22T02:28:59;100946.63;;;2.43;71.65
35918;BME280;22011;59.912;30.300;2023-03-22T02:31:49;100945.31;;;2.61;72.40
35918;BME280;22011;59.912;30.300;2023-03-22T02:34:37;100949.00;;;2.59;72.59
35918;BME280;22011;59.912;30.300;2023-03-22T02:37:17;100950.53;;;2.74;72.54
35918;BME280;22011;59.912;30.300;2023-03-22T02:39:50;100954.69;;;2.53;71.72
35918;BME280;22011;59.912;30.300;2023-03-22T02:42:39;100951.63;;;2.59;73.16
35918;BME280;22011;59.912;30.300;2023-03-22T02:45:13;100948.41;;;2.43;72.86
35918;BME280;22011;59.912;30.300;2023-03-22T02:47:49;100940.41;;;2.44;73.08
35918;BME280;22011;59.912;30.300;2023-03-22T02:50:24;100948.41;;;2.43;73.73
35918;BME280;22011;59.912;30.300;2023-03-22T02:52:59;100948.53;;;2.41;73.28
35918;BME280;22011;59.912;30.300;2023-03-22T02:55:33;100948.63;;;2.40;73.24
35918;BME280;22011;59.912;30.300;2023-03-22T02:58:08;100952.09;;;2.40;72.88
35918;BME280;22011;59.912;30.300;2023-03-22T03:00:39;100950.84;;;2.33;72.72
35918;BME280;22011;59.912;30.300;2023-03-22T03:03:09;100955.59;;;2.28;72.80
35918;BME280;22011;59.912;30.300;2023-03-22T03:05:40;100939.94;;;2.26;72.68
35918;BME280;22011;59.912;30.300;2023-03-22T03:08:13;100949.69;;;2.24;72.13
35918;BME280;22011;59.912;30.300;2023-03-22T03:10:44;100939.81;;;2.28;72.50
35918;BME280;22011;59.912;30.300;2023-03-22T03:13:13;100948.66;;;2.27;71.92
35918;BME280;22011;59.912;30.300;2023-03-22T03:15:41;100942.34;;;2.29;72.17
35918;BME280;22011;59.912;30.300;2023-03-22T03:18:19;100946.09;;;2.38;71.98
35918;BME280;22011;59.912;30.300;2023-03-22T03:20:57;100946.44;;;2.34;71.80
35918;BME280;22011;59.912;30.300;2023-03-22T03:23:36;100956.44;;;2.28;72.28
35918;BME280;22011;59.912;30.300;2023-03-22T03:26:12;100951.38;;;2.25;71.69
35918;BME280;22011;59.912;30.300;2023-03-22T03:28:48;100945.50;;;2.22;71.40
35918;BME280;22011;59.912;30.300;2023-03-22T03:31:26;100956.66;;;2.25;71.83
35918;BME280;22011;59.912;30.300;2023-03-22T03:34:01;100948.97;;;2.22;71.25
35918;BME280;22011;59.912;30.300;2023-03-22T03:36:33;100949.28;;;2.18;71.07
35918;BME280;22011;59.912;30.300;2023-03-22T03:39:06;100951.72;;;2.21;70.80
35918;BME280;22011;59.912;30.300;2023-03-22T03:41:38;100950.97;;;2.19;71.64
35918;BME280;22011;59.912;30.300;2023-03-22T03:44:07;100953.72;;;2.17;71.43
35918;BME280;22011;59.912;30.300;2023-03-22T03:46:36;100950.88;;;2.20;71.36
35918;BME280;22011;59.912;30.300;2023-03-22T03:49:04;100949.91;;;2.21;72.16
35918;BME280;22011;59.912;30.300;2023-03-22T03:51:45;100947.28;;;2.34;72.30
35918;BME280;22011;59.912;30.300;2023-03-22T03:54:13;100948.97;;;2.22;70.91
35918;BME280;22011;59.912;30.300;2023-03-22T03:56:42;100949.50;;;2.27;70.77
35918;BME280;22011;59.912;30.300;2023-03-22T03:59:13;100955.91;;;2.23;70.01
35918;BME280;22011;59.912;30.300;2023-03-22T04:01:41;100952.53;;;2.21;69.88
35918;BME280;22011;59.912;30.300;2023-03-22T04:04:22;100950.44;;;2.26;70.33
35918;BME280;22011;59.912;30.300;2023-03-22T04:07:02;100952.44;;;2.23;71.03
35918;BME280;22011;59.912;30.300;2023-03-22T04:09:32;100949.91;;;2.21;70.50
35918;BME280;22011;59.912;30.300;2023-03-22T04:12:16;100948.25;;;2.20;71.11
35918;BME280;22011;59.912;30.300;2023-03-22T04:14:58;100951.41;;;2.13;71.14
35918;BME280;22011;59.912;30.300;2023-03-22T04:17:28;100948.66;;;2.14;70.93
35918;BME280;22011;59.912;30.300;2023-03-22T04:19:57;100957.06;;;2.19;71.10
35918;BME280;22011;59.912;30.300;2023-03-22T04:22:25;100955.50;;;2.17;71.32
35918;BME280;22011;59.912;30.300;2023-03-22T04:24:53;100959.06;;;2.16;70.33
35918;BME280;22011;59.912;30.300;2023-03-22T04:27:24;100954.13;;;2.11;70.69
35918;BME280;22011;59.912;30.300;2023-03-22T04:30:08;100960.69;;;2.06;70.80
35918;BME280;22011;59.912;30.300;2023-03-22T04:32:55;100948.88;;;2.11;70.88
35918;BME280;22011;59.912;30.300;2023-03-22T04:35:34;100960.97;;;2.14;70.21
35918;BME280;22011;59.912;30.300;2023-03-22T04:38:02;100960.13;;;2.13;70.14
35918;BME280;22011;59.912;30.300;2023-03-22T04:40:31;100961.91;;;2.13;69.43
35918;BME280;22011;59.912;30.300;2023-03-22T04:43:18;100961.81;;;2.14;69.75
35918;BME280;22011;59.912;30.300;2023-03-22T04:45:52;100966.88;;;2.05;70.77
35918;BME280;22011;59.912;30.300;2023-03-22T04:48:27;100972.47;;;2.00;69.79
35918;BME280;22011;59.912;30.300;2023-03-22T04:50:56;100959.09;;;2.03;70.25
35918;BME280;22011;59.912;30.300;2023-03-22T04:53:34;100963.22;;;2.07;70.69
35918;BME280;22011;59.912;30.300;2023-03-22T04:56:05;100965.50;;;2.12;70.82
35918;BME280;22011;59.912;30.300;2023-03-22T04:58:37;100959.59;;;2.21;69.90
35918;BME280;22011;59.912;30.300;2023-03-22T05:01:06;100957.69;;;2.23;69.58
35918;BME280;22011;59.912;30.300;2023-03-22T05:03:38;100963.38;;;2.17;69.69
35918;BME280;22011;59.912;30.300;2023-03-22T05:06:07;100964.22;;;2.17;69.44
35918;BME280;22011;59.912;30.300;2023-03-22T05:08:50;100960.31;;;2.23;69.87
35918;BME280;22011;59.912;30.300;2023-03-22T05:11:20;100961.38;;;2.20;69.07
35918;BME280;22011;59.912;30.300;2023-03-22T05:14:06;100965.25;;;2.27;69.27
35918;BME280;22011;59.912;30.300;2023-03-22T05:16:35;100962.63;;;2.27;69.05
35918;BME280;22011;59.912;30.300;2023-03-22T05:19:05;100964.38;;;2.52;69.90
35918;BME280;22011;59.912;30.300;2023-03-22T05:21:41;100960.22;;;2.24;69.63
35918;BME280;22011;59.912;30.300;2023-03-22T05:24:09;100967.38;;;2.22;69.12
35918;BME280;22011;59.912;30.300;2023-03-22T05:26:38;100962.31;;;2.19;69.55
35918;BME280;22011;59.912;30.300;2023-03-22T05:29:10;100966.31;;;2.25;69.74
35918;BME280;22011;59.912;30.300;2023-03-22T05:32:04;100967.47;;;2.21;70.04
35918;BME280;22011;59.912;30.300;2023-03-22T05:34:32;100960.31;;;2.23;69.50
35918;BME280;22011;59.912;30.300;2023-03-22T05:37:09;100959.59;;;2.21;69.33
35918;BME280;22011;59.912;30.300;2023-03-22T05:39:53;100960.44;;;2.21;69.29
35918;BME280;22011;59.912;30.300;2023-03-22T05:42:25;100963.81;;;2.23;68.36
35918;BME280;22011;59.912;30.300;2023-03-22T05:44:55;100962.13;;;2.22;68.12
35918;BME280;22011;59.912;30.300;2023-03-22T05:47:23;100956.34;;;2.17;69.13
35918;BME280;22011;59.912;30.300;2023-03-22T05:49:59;100958.44;;;2.25;68.67
35918;BME280;22011;59.912;30.300;2023-03-22T05:52:28;100961.47;;;2.32;68.72
35918;BME280;22011;59.912;30.300;2023-03-22T05:55:20;100955.78;;;2.38;68.15
35918;BME280;22011;59.912;30.300;2023-03-22T05:57:52;100957.28;;;2.29;68.18
35918;BME280;22011;59.912;30.300;2023-03-22T06:00:22;100965.69;;;2.34;67.57
35918;BME280;22011;59.912;30.300;2023-03-22T06:03:10;100959.16;;;2.40;68.35
35918;BME280;22011;59.912;30.300;2023-03-22T06:05:42;100962.28;;;2.45;68.50
35918;BME280;22011;59.912;30.300;2023-03-22T06:08:12;100965.56;;;2.48;67.38
35918;BME280;22011;59.912;30.300;2023-03-22T06:10:40;100959.22;;;2.51;67.82
35918;BME280;22011;59.912;30.300;2023-03-22T06:13:10;100955.34;;;2.44;67.11
35918;BME280;22011;59.912;30.300;2023-03-22T06:15:39;100952.72;;;2.44;67.39
35918;BME280;22011;59.912;30.300;2023-03-22T06:18:14;100943.25;;;2.41;67.58
35918;BME280;22011;59.912;30.300;2023-03-22T06:20:45;100944.00;;;2.43;67.73
35918;BME280;22011;59.912;30.300;2023-03-22T06:23:17;100946.50;;;2.45;67.25
35918;BME280;22011;59.912;30.300;2023-03-22T06:25:46;100951.56;;;2.48;67.27
35918;BME280;22011;59.912;30.300;2023-03-22T06:28:15;100947.75;;;2.52;67.51
35918;BME280;22011;59.912;30.300;2023-03-22T06:30:50;100944.19;;;2.53;67.12
35918;BME280;22011;59.912;30.300;2023-03-22T06:33:30;100943.75;;;2.59;68.25
35918;BME280;22011;59.912;30.300;2023-03-22T06:36:08;100949.75;;;2.61;68.62
35918;BME280;22011;59.912;30.300;2023-03-22T06:38:45;100947.94;;;2.61;67.12
35918;BME280;22011;59.912;30.300;2023-03-22T06:41:12;100949.19;;;2.69;66.83
35918;BME280;22011;59.912;30.300;2023-03-22T06:43:40;100945.50;;;2.71;67.18
35918;BME280;22011;59.912;30.300;2023-03-22T06:46:23;100946.63;;;2.80;67.57
35918;BME280;22011;59.912;30.300;2023-03-22T06:49:00;100946.84;;;2.77;66.48
35918;BME280;22011;59.912;30.300;2023-03-22T06:51:28;100943.03;;;2.81;67.14
35918;BME280;22011;59.912;30.300;2023-03-22T06:53:55;100931.56;;;2.82;66.21
35918;BME280;22011;59.912;30.300;2023-03-22T06:56:23;100941.03;;;2.84;66.77
35918;BME280;22011;59.912;30.300;2023-03-22T06:58:52;100936.28;;;2.89;66.61
35918;BME280;22011;59.912;30.300;2023-03-22T07:01:24;100934.66;;;3.00;66.67
35918;BME280;22011;59.912;30.300;2023-03-22T07:03:53;100939.19;;;2.98;66.36
35918;BME280;22011;59.912;30.300;2023-03-22T07:06:22;100940.88;;;2.99;65.94
35918;BME280;22011;59.912;30.300;2023-03-22T07:08:50;100935.59;;;2.99;65.73
35918;BME280;22011;59.912;30.300;2023-03-22T07:11:21;100939.19;;;2.98;66.12
35918;BME280;22011;59.912;30.300;2023-03-22T07:13:56;100936.56;;;2.98;66.38
35918;BME280;22011;59.912;30.300;2023-03-22T07:16:27;100943.91;;;3.05;66.43
35918;BME280;22011;59.912;30.300;2023-03-22T07:18:58;100937.78;;;3.05;65.69
35918;BME280;22011;59.912;30.300;2023-03-22T07:21:26;100936.38;;;3.12;65.15
35918;BME280;22011;59.912;30.300;2023-03-22T07:23:58;100932.66;;;3.14;65.72
35918;BME280;22011;59.912;30.300;2023-03-22T07:26:29;100933.38;;;3.16;65.22
35918;BME280;22011;59.912;30.300;2023-03-22T07:28:59;100935.22;;;3.27;64.25
35918;BME280;22011;59.912;30.300;2023-03-22T07:31:31;100936.34;;;3.36;64.11
35918;BME280;22011;59.912;30.300;2023-03-22T07:34:05;100926.13;;;3.31;65.15
35918;BME280;22011;59.912;30.300;2023-03-22T07:36:45;100931.19;;;3.34;65.03
35918;BME280;22011;59.912;30.300;2023-03-22T07:39:13;100930.22;;;3.35;64.82
35918;BME280;22011;59.912;30.300;2023-03-22T07:41:44;100931.41;;;3.31;65.55
35918;BME280;22011;59.912;30.300;2023-03-22T07:44:24;100936.06;;;3.27;65.79
35918;BME280;22011;59.912;30.300;2023-03-22T07:47:12;100929.22;;;3.25;65.55
35918;BME280;22011;59.912;30.300;2023-03-22T07:49:47;100916.06;;;3.25;66.18
35918;BME280;22011;59.912;30.300;2023-03-22T07:52:19;100917.50;;;3.29;66.10
35918;BME280;22011;59.912;30.300;2023-03-22T07:54:47;100916.81;;;3.38;66.03
35918;BME280;22011;59.912;30.300;2023-03-22T07:57:15;100913.47;;;3.36;65.66
35918;BME280;22011;59.912;30.300;2023-03-22T07:59:52;100917.16;;;3.34;65.06
35918;BME280;22011;59.912;30.300;2023-03-22T08:02:24;100920.41;;;3.37;65.77
35918;BME280;22011;59.912;30.300;2023-03-22T08:04:54;100914.41;;;3.35;65.83
35918;BME280;22011;59.912;30.300;2023-03-22T08:07:34;100906.72;;;3.67;66.68
35918;BME280;22011;59.912;30.300;2023-03-22T08:10:03;100899.59;;;3.45;65.95
35918;BME280;22011;59.912;30.300;2023-03-22T08:12:31;100898.66;;;3.46;65.35
35918;BME280;22011;59.912;30.300;2023-03-22T08:15:09;100905.97;;;3.54;65.10
35918;BME280;22011;59.912;30.300;2023-03-22T08:17:38;100898.44;;;3.60;64.79
35918;BME280;22011;59.912;30.300;2023-03-22T08:20:11;100889.94;;;3.57;64.71
35918;BME280;22011;59.912;30.300;2023-03-22T08:22:56;100887.06;;;3.60;64.64
35918;BME280;22011;59.912;30.300;2023-03-22T08:25:26;100893.44;;;3.69;65.13
35918;BME280;22011;59.912;30.300;2023-03-22T08:28:03;100892.22;;;3.73;64.66
35918;BME280;22011;59.912;30.300;2023-03-22T08:30:31;100883.00;;;3.78;64.84
35918;BME280;22011;59.912;30.300;2023-03-22T08:33:00;100888.06;;;3.92;64.74
35918;BME280;22011;59.912;30.300;2023-03-22T08:35:28;100880.28;;;4.02;62.27
35918;BME280;22011;59.912;30.300;2023-03-22T08:37:55;100879.78;;;4.08;62.95
35918;BME280;22011;59.912;30.300;2023-03-22T08:40:29;100874.72;;;4.16;62.79
35918;BME280;22011;59.912;30.300;2023-03-22T08:43:00;100877.97;;;4.20;62.56
35918;BME280;22011;59.912;30.300;2023-03-22T08:45:29;100872.31;;;4.24;62.05
35918;BME280;22011;59.912;30.300;2023-03-22T08:48:10;100879.03;;;4.28;62.16
35918;BME280;22011;59.912;30.300;2023-03-22T08:51:05;100872.91;;;4.28;62.30
35918;BME280;22011;59.912;30.300;2023-03-22T08:53:48;100875.19;;;4.33;61.94
35918;BME280;22011;59.912;30.300;2023-03-22T08:56:34;100867.16;;;4.23;61.51
35918;BME280;22011;59.912;30.300;2023-03-22T08:59:15;100859.13;;;4.24;61.36
35918;BME280;22011;59.912;30.300;2023-03-22T09:02:09;100860.06;;;4.35;61.55
35918;BME280;22011;59.912;30.300;2023-03-22T09:04:38;100859.59;;;4.41;61.83
35918;BME280;22011;59.912;30.300;2023-03-22T09:07:05;100858.75;;;4.40;60.98
35918;BME280;22011;59.912;30.300;2023-03-22T09:09:33;100867.00;;;4.47;61.10
35918;BME280;22011;59.912;30.300;2023-03-22T09:12:01;100862.19;;;4.52;61.18
35918;BME280;22011;59.912;30.300;2023-03-22T09:14:30;100861.25;;;4.42;61.31
35918;BME280;22011;59.912;30.300;2023-03-22T09:16:57;100862.09;;;4.42;61.26
35918;BME280;22011;59.912;30.300;2023-03-22T09:19:26;100860.28;;;4.54;60.37
35918;BME280;22011;59.912;30.300;2023-03-22T09:21:55;100850.91;;;4.61;60.96
35918;BME280;22011;59.912;30.300;2023-03-22T09:24:31;100853.06;;;4.56;59.79
35918;BME280;22011;59.912;30.300;2023-03-22T09:27:02;100856.94;;;4.84;60.94
35918;BME280;22011;59.912;30.300;2023-03-22T09:29:29;100854.50;;;4.60;60.45
35918;BME280;22011;59.912;30.300;2023-03-22T09:32:00;100858.69;;;4.63;61.34
35918;BME280;22011;59.912;30.300;2023-03-22T09:34:31;100857.34;;;4.68;61.36
35918;BME280;22011;59.912;30.300;2023-03-22T09:37:00;100856.84;;;4.74;61.00
35918;BME280;22011;59.912;30.300;2023-03-22T09:39:39;100861.41;;;4.72;61.24
35918;BME280;22011;59.912;30.300;2023-03-22T09:42:22;100852.03;;;4.79;61.45
35918;BME280;22011;59.912;30.300;2023-03-22T09:44:52;100849.19;;;4.71;61.26
35918;BME280;22011;59.912;30.300;2023-03-22T09:47:30;100842.56;;;4.77;61.93
35918;BME280;22011;59.912;30.300;2023-03-22T09:50:06;100844.63;;;4.73;62.83
35918;BME280;22011;59.912;30.300;2023-03-22T09:52:36;100851.59;;;4.63;61.97
35918;BME280;22011;59.912;30.300;2023-03-22T09:55:09;100846.47;;;4.62;62.16
35918;BME280;22011;59.912;30.300;2023-03-22T09:57:40;100851.03;;;4.59;62.27
35918;BME280;22011;59.912;30.300;2023-03-22T10:00:17;100849.31;;;4.70;63.32
35918;BME280;22011;59.912;30.300;2023-03-22T10:02:50;100855.00;;;4.86;63.34
35918;BME280;22011;59.912;30.300;2023-03-22T10:05:24;100837.50;;;4.53;62.60
35918;BME280;22011;59.912;30.300;2023-03-22T10:08:14;100837.72;;;4.50;63.36
35918;BME280;22011;59.912;30.300;2023-03-22T10:10:44;100838.38;;;4.31;62.74
35918;BME280;22011;59.912;30.300;2023-03-22T10:13:16;100841.00;;;4.31;64.15
35918;BME280;22011;59.912;30.300;2023-03-22T10:15:49;100842.81;;;4.31;63.72
35918;BME280;22011;59.912;30.300;2023-03-22T10:18:19;100849.75;;;4.32;63.56
35918;BME280;22011;59.912;30.300;2023-03-22T10:20:54;100848.31;;;4.39;63.94
35918;BME280;22011;59.912;30.300;2023-03-22T10:23:27;100852.88;;;4.37;63.15
35918;BME280;22011;59.912;30.300;2023-03-22T10:25:57;100843.06;;;4.27;63.51
35918;BME280;22011;59.912;30.300;2023-03-22T10:28:30;100850.22;;;4.37;63.38
35918;BME280;22011;59.912;30.300;2023-03-22T10:31:01;100835.75;;;4.20;63.72
35918;BME280;22011;59.912;30.300;2023-03-22T10:33:39;100837.78;;;4.27;65.14
35918;BME280;22011;59.912;30.300;2023-03-22T10:36:17;100844.69;;;4.08;65.06
35918;BME280;22011;59.912;30.300;2023-03-22T10:38:52;100830.66;;;4.07;65.73
35918;BME280;22011;59.912;30.300;2023-03-22T10:41:23;100825.88;;;4.01;65.69
35918;BME280;22011;59.912;30.300;2023-03-22T10:43:55;100822.50;;;4.10;66.06
35918;BME280;22011;59.912;30.300;2023-03-22T10:46:26;100821.53;;;4.11;66.05
35918;BME280;22011;59.912;30.300;2023-03-22T10:48:57;100818.78;;;4.13;65.80
35918;BME280;22011;59.912;30.300;2023-03-22T10:51:28;100818.13;;;4.20;65.85
35918;BME280;22011;59.912;30.300;2023-03-22T10:53:59;100816.31;;;4.32;65.17
35918;BME280;22011;59.912;30.300;2023-03-22T10:56:27;100808.03;;;4.37;65.36
35918;BME280;22011;59.912;30.300;2023-03-22T10:58:55;100807.19;;;4.36;64.87
35918;BME280;22011;59.912;30.300;2023-03-22T11:01:26;100802.88;;;4.35;64.54
35918;BME280;22011;59.912;30.300;2023-03-22T11:03:56;100796.06;;;4.33;65.10
35918;BME280;22011;59.912;30.300;2023-03-22T11:06:25;100797.00;;;4.32;65.76
35918;BME280;22011;59.912;30.300;2023-03-22T11:08:58;100792.59;;;4.21;65.59
35918;BME280;22011;59.912;30.300;2023-03-22T11:11:28;100789.38;;;4.17;66.36
35918;BME280;22011;59.912;30.300;2023-03-22T11:14:03;100785.41;;;4.23;67.15
35918;BME280;22011;59.912;30.300;2023-03-22T11:16:41;100781.94;;;4.22;66.98
35918;BME280;22011;59.912;30.300;2023-03-22T11:19:14;100777.16;;;4.16;66.59
35918;BME280;22011;59.912;30.300;2023-03-22T11:21:46;100768.56;;;4.14;66.23
35918;BME280;22011;59.912;30.300;2023-03-22T11:24:17;100771.75;;;4.18;66.41
35918;BME280;22011;59.912;30.300;2023-03-22T11:27:01;100764.19;;;4.24;67.23
35918;BME280;22011;59.912;30.300;2023-03-22T11:29:38;100758.00;;;4.14;67.46
35918;BME280;22011;59.912;30.300;2023-03-22T11:32:19;100761.31;;;4.16;67.54
35918;BME280;22011;59.912;30.300;2023-03-22T11:34:58;100745.59;;;4.26;67.78
35918;BME280;22011;59.912;30.300;2023-03-22T11:37:26;100747.66;;;4.22;66.24
35918;BME280;22011;59.912;30.300;2023-03-22T11:39:59;100739.81;;;4.32;67.11
35918;BME280;22011;59.912;30.300;2023-03-22T11:42:32;100744.75;;;4.25;66.39
35918;BME280;22011;59.912;30.300;2023-03-22T11:45:01;100733.63;;;4.22;66.63
35918;BME280;22011;59.912;30.300;2023-03-22T11:47:33;100731.31;;;4.28;66.87
35918;BME280;22011;59.912;30.300;2023-03-22T11:50:05;100733.72;;;4.32;66.15
35918;BME280;22011;59.912;30.300;2023-03-22T11:52:33;100731.06;;;4.32;65.77
35918;BME280;22011;59.912;30.300;2023-03-22T11:55:03;100726.38;;;4.35;66.24
35918;BME280;22011;59.912;30.300;2023-03-22T11:57:32;100724.34;;;4.39;65.79
35918;BME280;22011;59.912;30.300;2023-03-22T12:00:03;100722.16;;;4.44;65.65
35918;BME280;22011;59.912;30.300;2023-03-22T12:02:40;100718.03;;;4.51;65.15
35918;BME280;22011;59.912;30.300;2023-03-22T12:05:16;100714.56;;;4.50;65.53
35918;BME280;22011;59.912;30.300;2023-03-22T12:07:46;100719.50;;;4.44;65.15
35918;BME280;22011;59.912;30.300;2023-03-22T12:10:20;100710.97;;;4.51;65.70
35918;BME280;22011;59.912;30.300;2023-03-22T12:12:54;100698.03;;;4.48;65.72
35918;BME280;22011;59.912;30.300;2023-03-22T12:15:23;100702.34;;;4.49;65.65
35918;BME280;22011;59.912;30.300;2023-03-22T12:17:55;100698.47;;;4.53;65.00
35918;BME280;22011;59.912;30.300;2023-03-22T12:20:33;100699.78;;;4.59;65.18
35918;BME280;22011;59.912;30.300;2023-03-22T12:23:11;100686.19;;;4.64;65.29
35918;BME280;22011;59.912;30.300;2023-03-22T12:25:45;100685.09;;;4.66;64.46
35918;BME280;22011;59.912;30.300;2023-03-22T12:28:17;100682.00;;;4.61;64.53
35918;BME280;22011;59.912;30.300;2023-03-22T12:30:48;100669.78;;;4.60;64.93
35918;BME280;22011;59.912;30.300;2023-03-22T12:33:21;100669.25;;;4.66;64.87
35918;BME280;22011;59.912;30.300;2023-03-22T12:35:59;100664.03;;;4.76;65.42
35918;BME280;22011;59.912;30.300;2023-03-22T12:38:31;100666.56;;;4.77;65.45
35918;BME280;22011;59.912;30.300;2023-03-22T12:41:05;100650.06;;;4.85;65.85
35918;BME280;22011;59.912;30.300;2023-03-22T12:43:41;100653.72;;;4.93;65.89
35918;BME280;22011;59.912;30.300;2023-03-22T12:46:16;100640.34;;;4.85;66.55
35918;BME280;22011;59.912;30.300;2023-03-22T12:48:47;100641.84;;;4.78;66.07
35918;BME280;22011;59.912;30.300;2023-03-22T12:51:16;100635.59;;;4.79;64.11
35918;BME280;22011;59.912;30.300;2023-03-22T12:53:45;100629.78;;;4.85;64.73
35918;BME280;22011;59.912;30.300;2023-03-22T12:56:15;100626.44;;;5.14;65.23
35918;BME280;22011;59.912;30.300;2023-03-22T12:58:47;100619.41;;;4.93;64.43
35918;BME280;22011;59.912;30.300;2023-03-22T13:01:22;100620.38;;;4.92;64.21
35918;BME280;22011;59.912;30.300;2023-03-22T13:03:54;100604.78;;;4.89;63.42
35918;BME280;22011;59.912;30.300;2023-03-22T13:06:53;100595.28;;;5.08;63.22
35918;BME280;22011;59.912;30.300;2023-03-22T13:09:35;100586.69;;;5.15;63.00
35918;BME280;22011;59.912;30.300;2023-03-22T13:12:30;100573.75;;;5.22;63.19
35918;BME280;22011;59.912;30.300;2023-03-22T13:15:00;100577.31;;;5.02;62.42
35918;BME280;22011;59.912;30.300;2023-03-22T13:17:38;100573.88;;;5.11;63.22
35918;BME280;22011;59.912;30.300;2023-03-22T13:20:25;100566.13;;;5.19;63.26
35918;BME280;22011;59.912;30.300;2023-03-22T13:23:03;100570.69;;;5.17;62.85
35918;BME280;22011;59.912;30.300;2023-03-22T13:25:37;100564.81;;;5.04;62.47
35918;BME280;22011;59.912;30.300;2023-03-22T13:28:22;100574.56;;;5.22;62.22